sensor_id;sensor_type;location;lat;lon;timestamp;P1;durP1;ratioP1;P2;durP2;ratioP2
12112;SDS011;6120;52.250;8.478;2023-06-22T00:00:11;3.47;;;3.17;;
12112;SDS011;6120;52.250;8.478;2023-06-22T00:02:39;3.10;;;2.80;;
12112;SDS011;6120;52.250;8.478;2023-06-22T00:05:06;3.00;;;2.80;;
12112;SDS011;6120;52.250;8.478;2023-06-22T00:07:33;3.03;;;2.80;;
12112;SDS011;6120;52.250;8.478;2023-06-22T00:10:00;3.17;;;2.90;;
12112;SDS011;6120;52.250;8.478;2023-06-22T00:12:26;2.92;;;2.72;;
12112;SDS011;6120;52.250;8.478;2023-06-22T00:14:53;3.10;;;2.80;;
12112;SDS011;6120;52.250;8.478;2023-06-22T00:17:19;3.05;;;2.85;;
12112;SDS011;6120;52.250;8.478;2023-06-22T00:19:47;3.40;;;3.10;;
12112;SDS011;6120;52.250;8.478;2023-06-22T00:22:13;3.30;;;3.00;;
12112;SDS011;6120;52.250;8.478;2023-06-22T00:24:40;3.20;;;2.90;;
12112;SDS011;6120;52.250;8.478;2023-06-22T00:27:08;3.30;;;3.00;;
12112;SDS011;6120;52.250;8.478;2023-06-22T00:29:34;3.00;;;2.80;;
12112;SDS011;6120;52.250;8.478;2023-06-22T00:32:01;3.20;;;2.90;;
12112;SDS011;6120;52.250;8.478;2023-06-22T00:34:28;3.00;;;2.70;;
12112;SDS011;6120;52.250;8.478;2023-06-22T00:36:54;3.45;;;3.15;;
12112;SDS011;6120;52.250;8.478;2023-06-22T00:39:21;3.28;;;2.97;;
12112;SDS011;6120;52.250;8.478;2023-06-22T00:41:47;3.53;;;3.22;;
12112;SDS011;6120;52.250;8.478;2023-06-22T00:44:14;3.53;;;3.22;;
12112;SDS011;6120;52.250;8.478;2023-06-22T00:46:41;3.17;;;2.90;;
12112;SDS011;6120;52.250;8.478;2023-06-22T00:49:07;3.03;;;2.80;;
12112;SDS011;6120;52.250;8.478;2023-06-22T00:51:34;3.17;;;2.88;;
12112;SDS011;6120;52.250;8.478;2023-06-22T00:54:04;3.28;;;2.97;;
12112;SDS011;6120;52.250;8.478;2023-06-22T00:56:31;3.08;;;2.83;;
12112;SDS011;6120;52.250;8.478;2023-06-22T00:58:58;3.35;;;3.05;;
12112;SDS011;6120;52.250;8.478;2023-06-22T01:01:26;2.92;;;2.70;;
12112;SDS011;6120;52.250;8.478;2023-06-22T01:03:53;3.30;;;3.00;;
12112;SDS011;6120;52.250;8.478;2023-06-22T01:06:33;3.00;;;2.80;;
12112;SDS011;6120;52.250;8.478;2023-06-22T01:11:48;3.47;;;3.17;;
12112;SDS011;6120;52.250;8.478;2023-06-22T01:14:43;3.33;;;2.90;;
12112;SDS011;6120;52.250;8.478;2023-06-22T01:17:22;3.63;;;3.30;;
12112;SDS011;6120;52.250;8.478;2023-06-22T01:19:50;3.17;;;2.88;;
12112;SDS011;6120;52.250;8.478;2023-06-22T01:22:24;2.72;;;2.53;;
12112;SDS011;6120;52.250;8.478;2023-06-22T01:27:47;3.33;;;3.03;;
12112;SDS011;6120;52.250;8.478;2023-06-22T01:30:19;3.63;;;3.33;;
12112;SDS011;6120;52.250;8.478;2023-06-22T01:32:46;3.15;;;2.85;;
12112;SDS011;6120;52.250;8.478;2023-06-22T01:35:14;3.53;;;3.22;;
12112;SDS011;6120;52.250;8.478;2023-06-22T01:37:41;3.42;;;3.13;;
12112;SDS011;6120;52.250;8.478;2023-06-22T01:40:08;3.67;;;3.38;;
12112;SDS011;6120;52.250;8.478;2023-06-22T01:42:36;4.70;;;3.45;;
12112;SDS011;6120;52.250;8.478;2023-06-22T01:45:03;3.80;;;3.50;;
12112;SDS011;6120;52.250;8.478;2023-06-22T01:47:30;2.80;;;2.60;;
12112;SDS011;6120;52.250;8.478;2023-06-22T01:49:57;3.28;;;2.97;;
12112;SDS011;6120;52.250;8.478;2023-06-22T01:52:24;3.40;;;3.10;;
12112;SDS011;6120;52.250;8.478;2023-06-22T01:54:51;3.60;;;3.30;;
12112;SDS011;6120;52.250;8.478;2023-06-22T01:57:17;3.30;;;3.00;;
12112;SDS011;6120;52.250;8.478;2023-06-22T02:00:06;3.22;;;2.92;;
12112;SDS011;6120;52.250;8.478;2023-06-22T02:02:37;2.92;;;2.72;;
12112;SDS011;6120;52.250;8.478;2023-06-22T02:05:07;3.47;;;3.17;;
12112;SDS011;6120;52.250;8.478;2023-06-22T02:07:41;3.25;;;2.95;;
12112;SDS011;6120;52.250;8.478;2023-06-22T02:10:13;3.00;;;2.80;;
12112;SDS011;6120;52.250;8.478;2023-06-22T02:12:42;3.10;;;2.80;;
12112;SDS011;6120;52.250;8.478;2023-06-22T02:15:10;3.40;;;3.10;;
12112;SDS011;6120;52.250;8.478;2023-06-22T02:17:38;3.00;;;2.80;;
12112;SDS011;6120;52.250;8.478;2023-06-22T02:20:05;3.03;;;2.72;;
12112;SDS011;6120;52.250;8.478;2023-06-22T02:22:34;3.33;;;3.03;;
12112;SDS011;6120;52.250;8.478;2023-06-22T02:25:01;3.30;;;3.00;;
12112;SDS011;6120;52.250;8.478;2023-06-22T02:27:27;3.38;;;3.08;;
12112;SDS011;6120;52.250;8.478;2023-06-22T02:29:54;3.10;;;2.85;;
12112;SDS011;6120;52.250;8.478;2023-06-22T02:32:20;3.60;;;3.30;;
12112;SDS011;6120;52.250;8.478;2023-06-22T02:34:47;3.75;;;3.45;;
12112;SDS011;6120;52.250;8.478;2023-06-22T02:37:14;3.20;;;2.90;;
12112;SDS011;6120;52.250;8.478;2023-06-22T02:39:41;3.40;;;3.10;;
12112;SDS011;6120;52.250;8.478;2023-06-22T02:42:07;3.45;;;3.15;;
12112;SDS011;6120;52.250;8.478;2023-06-22T02:44:34;4.13;;;3.55;;
12112;SDS011;6120;52.250;8.478;2023-06-22T02:47:01;3.33;;;3.03;;
12112;SDS011;6120;52.250;8.478;2023-06-22T02:49:27;3.92;;;3.63;;
12112;SDS011;6120;52.250;8.478;2023-06-22T02:51:54;4.00;;;3.70;;
12112;SDS011;6120;52.250;8.478;2023-06-22T02:54:21;3.75;;;3.45;;
12112;SDS011;6120;52.250;8.478;2023-06-22T02:56:48;3.90;;;3.40;;
12112;SDS011;6120;52.250;8.478;2023-06-22T02:59:14;3.83;;;3.42;;
12112;SDS011;6120;52.250;8.478;2023-06-22T03:01:41;3.40;;;3.10;;
12112;SDS011;6120;52.250;8.478;2023-06-22T03:04:08;3.20;;;2.90;;
12112;SDS011;6120;52.250;8.478;2023-06-22T03:06:35;3.43;;;3.13;;
12112;SDS011;6120;52.250;8.478;2023-06-22T03:09:03;3.40;;;3.10;;
12112;SDS011;6120;52.250;8.478;2023-06-22T03:11:32;3.90;;;3.55;;
12112;SDS011;6120;52.250;8.478;2023-06-22T03:14:00;4.05;;;3.65;;
12112;SDS011;6120;52.250;8.478;2023-06-22T03:16:27;3.95;;;3.60;;
12112;SDS011;6120;52.250;8.478;2023-06-22T03:18:55;3.47;;;3.17;;
12112;SDS011;6120;52.250;8.478;2023-06-22T03:21:22;3.90;;;3.60;;
12112;SDS011;6120;52.250;8.478;2023-06-22T03:23:49;4.20;;;3.70;;
12112;SDS011;6120;52.250;8.478;2023-06-22T03:26:16;4.13;;;3.83;;
12112;SDS011;6120;52.250;8.478;2023-06-22T03:28:43;3.75;;;3.38;;
12112;SDS011;6120;52.250;8.478;2023-06-22T03:31:10;2.90;;;2.70;;
12112;SDS011;6120;52.250;8.478;2023-06-22T03:33:37;3.47;;;3.17;;
12112;SDS011;6120;52.250;8.478;2023-06-22T03:36:03;3.17;;;2.92;;
12112;SDS011;6120;52.250;8.478;2023-06-22T03:38:30;3.58;;;3.28;;
12112;SDS011;6120;52.250;8.478;2023-06-22T03:40:57;3.63;;;3.30;;
12112;SDS011;6120;52.250;8.478;2023-06-22T03:43:23;3.50;;;3.20;;
12112;SDS011;6120;52.250;8.478;2023-06-22T03:45:50;2.97;;;2.78;;
12112;SDS011;6120;52.250;8.478;2023-06-22T03:48:17;3.90;;;3.60;;
12112;SDS011;6120;52.250;8.478;2023-06-22T03:50:44;3.35;;;3.05;;
12112;SDS011;6120;52.250;8.478;2023-06-22T03:53:10;3.70;;;3.05;;
12112;SDS011;6120;52.250;8.478;2023-06-22T03:55:37;2.95;;;2.75;;
12112;SDS011;6120;52.250;8.478;2023-06-22T03:58:04;3.10;;;2.85;;
12112;SDS011;6120;52.250;8.478;2023-06-22T04:00:32;3.38;;;3.08;;
12112;SDS011;6120;52.250;8.478;2023-06-22T04:02:58;3.60;;;3.30;;
12112;SDS011;6120;52.250;8.478;2023-06-22T04:05:25;3.58;;;3.28;;
12112;SDS011;6120;52.250;8.478;2023-06-22T04:07:52;3.70;;;3.38;;
12112;SDS011;6120;52.250;8.478;2023-06-22T04:10:19;3.67;;;3.38;;
12112;SDS011;6120;52.250;8.478;2023-06-22T04:12:45;3.33;;;3.03;;
12112;SDS011;6120;52.250;8.478;2023-06-22T04:15:12;3.65;;;3.35;;
12112;SDS011;6120;52.250;8.478;2023-06-22T04:17:39;3.47;;;3.17;;
12112;SDS011;6120;52.250;8.478;2023-06-22T04:20:05;3.30;;;3.00;;
12112;SDS011;6120;52.250;8.478;2023-06-22T04:22:33;3.50;;;3.20;;
12112;SDS011;6120;52.250;8.478;2023-06-22T04:24:59;3.63;;;3.33;;
12112;SDS011;6120;52.250;8.478;2023-06-22T04:27:26;3.80;;;3.50;;
12112;SDS011;6120;52.250;8.478;2023-06-22T04:29:53;3.45;;;3.15;;
12112;SDS011;6120;52.250;8.478;2023-06-22T04:32:19;3.55;;;3.25;;
12112;SDS011;6120;52.250;8.478;2023-06-22T04:34:46;3.60;;;3.30;;
12112;SDS011;6120;52.250;8.478;2023-06-22T04:37:13;3.55;;;3.25;;
12112;SDS011;6120;52.250;8.478;2023-06-22T04:39:42;3.38;;;3.08;;
12112;SDS011;6120;52.250;8.478;2023-06-22T04:42:09;3.65;;;3.35;;
12112;SDS011;6120;52.250;8.478;2023-06-22T04:44:36;3.67;;;3.38;;
12112;SDS011;6120;52.250;8.478;2023-06-22T04:47:03;3.60;;;3.30;;
12112;SDS011;6120;52.250;8.478;2023-06-22T04:49:32;3.50;;;3.20;;
12112;SDS011;6120;52.250;8.478;2023-06-22T04:52:00;3.60;;;3.30;;
12112;SDS011;6120;52.250;8.478;2023-06-22T04:54:27;3.70;;;3.40;;
12112;SDS011;6120;52.250;8.478;2023-06-22T04:56:53;3.80;;;3.50;;
12112;SDS011;6120;52.250;8.478;2023-06-22T04:59:23;3.25;;;3.05;;
12112;SDS011;6120;52.250;8.478;2023-06-22T05:01:54;3.17;;;2.88;;
12112;SDS011;6120;52.250;8.478;2023-06-22T05:04:24;3.40;;;3.10;;
12112;SDS011;6120;52.250;8.478;2023-06-22T05:06:52;3.40;;;3.10;;
12112;SDS011;6120;52.250;8.478;2023-06-22T05:09:19;4.00;;;3.58;;
12112;SDS011;6120;52.250;8.478;2023-06-22T05:11:46;3.40;;;3.10;;
12112;SDS011;6120;52.250;8.478;2023-06-22T05:14:13;3.45;;;3.15;;
12112;SDS011;6120;52.250;8.478;2023-06-22T05:16:43;4.43;;;3.30;;
12112;SDS011;6120;52.250;8.478;2023-06-22T05:19:11;3.80;;;3.45;;
12112;SDS011;6120;52.250;8.478;2023-06-22T05:21:38;3.58;;;3.28;;
12112;SDS011;6120;52.250;8.478;2023-06-22T05:24:05;3.50;;;3.20;;
12112;SDS011;6120;52.250;8.478;2023-06-22T05:26:32;3.60;;;3.30;;
12112;SDS011;6120;52.250;8.478;2023-06-22T05:29:00;3.47;;;3.17;;
12112;SDS011;6120;52.250;8.478;2023-06-22T05:31:28;3.63;;;3.33;;
12112;SDS011;6120;52.250;8.478;2023-06-22T05:33:55;3.80;;;3.33;;
12112;SDS011;6120;52.250;8.478;2023-06-22T05:36:22;3.75;;;3.45;;
12112;SDS011;6120;52.250;8.478;2023-06-22T05:38:52;4.13;;;3.10;;
12112;SDS011;6120;52.250;8.478;2023-06-22T05:41:19;3.45;;;3.15;;
12112;SDS011;6120;52.250;8.478;2023-06-22T05:43:46;3.38;;;3.08;;
12112;SDS011;6120;52.250;8.478;2023-06-22T05:46:12;3.55;;;3.25;;
12112;SDS011;6120;52.250;8.478;2023-06-22T05:48:39;3.47;;;3.17;;
12112;SDS011;6120;52.250;8.478;2023-06-22T05:51:06;3.67;;;3.38;;
12112;SDS011;6120;52.250;8.478;2023-06-22T05:53:32;3.38;;;3.08;;
12112;SDS011;6120;52.250;8.478;2023-06-22T05:55:59;3.97;;;3.50;;
12112;SDS011;6120;52.250;8.478;2023-06-22T05:58:25;3.60;;;3.30;;
12112;SDS011;6120;52.250;8.478;2023-06-22T06:00:52;3.97;;;3.67;;
12112;SDS011;6120;52.250;8.478;2023-06-22T06:03:18;5.05;;;4.03;;
12112;SDS011;6120;52.250;8.478;2023-06-22T06:05:45;3.63;;;3.33;;
12112;SDS011;6120;52.250;8.478;2023-06-22T06:08:12;3.63;;;3.33;;
12112;SDS011;6120;52.250;8.478;2023-06-22T06:10:39;4.13;;;3.70;;
12112;SDS011;6120;52.250;8.478;2023-06-22T06:13:05;4.15;;;3.75;;
12112;SDS011;6120;52.250;8.478;2023-06-22T06:15:33;3.83;;;3.38;;
12112;SDS011;6120;52.250;8.478;2023-06-22T06:18:00;3.88;;;3.45;;
12112;SDS011;6120;52.250;8.478;2023-06-22T06:20:28;3.60;;;3.30;;
12112;SDS011;6120;52.250;8.478;2023-06-22T06:22:56;3.83;;;3.53;;
12112;SDS011;6120;52.250;8.478;2023-06-22T06:25:22;3.40;;;3.10;;
12112;SDS011;6120;52.250;8.478;2023-06-22T06:27:50;3.72;;;3.42;;
12112;SDS011;6120;52.250;8.478;2023-06-22T06:30:18;3.65;;;3.35;;
12112;SDS011;6120;52.250;8.478;2023-06-22T06:32:45;3.10;;;2.85;;
12112;SDS011;6120;52.250;8.478;2023-06-22T06:35:13;3.67;;;3.38;;
12112;SDS011;6120;52.250;8.478;2023-06-22T06:37:41;3.53;;;3.22;;
12112;SDS011;6120;52.250;8.478;2023-06-22T06:40:10;3.50;;;3.00;;
12112;SDS011;6120;52.250;8.478;2023-06-22T06:45:15;2.83;;;2.63;;
12112;SDS011;6120;52.250;8.478;2023-06-22T06:47:43;3.13;;;2.70;;
12112;SDS011;6120;52.250;8.478;2023-06-22T06:50:10;4.55;;;3.20;;
12112;SDS011;6120;52.250;8.478;2023-06-22T06:52:37;4.22;;;3.58;;
12112;SDS011;6120;52.250;8.478;2023-06-22T06:55:04;5.20;;;4.10;;
12112;SDS011;6120;52.250;8.478;2023-06-22T06:57:35;4.00;;;3.45;;
12112;SDS011;6120;52.250;8.478;2023-06-22T07:00:06;3.90;;;3.50;;
12112;SDS011;6120;52.250;8.478;2023-06-22T07:02:38;3.78;;;3.47;;
12112;SDS011;6120;52.250;8.478;2023-06-22T07:05:11;4.35;;;3.95;;
12112;SDS011;6120;52.250;8.478;2023-06-22T07:07:39;3.80;;;3.50;;
12112;SDS011;6120;52.250;8.478;2023-06-22T07:10:06;3.75;;;3.33;;
12112;SDS011;6120;52.250;8.478;2023-06-22T07:12:33;3.80;;;3.47;;
12112;SDS011;6120;52.250;8.478;2023-06-22T07:15:06;3.33;;;3.03;;
12112;SDS011;6120;52.250;8.478;2023-06-22T07:17:34;3.60;;;3.30;;
12112;SDS011;6120;52.250;8.478;2023-06-22T07:20:02;3.13;;;2.88;;
12112;SDS011;6120;52.250;8.478;2023-06-22T07:22:34;3.42;;;3.13;;
12112;SDS011;6120;52.250;8.478;2023-06-22T07:25:01;3.95;;;3.55;;
12112;SDS011;6120;52.250;8.478;2023-06-22T07:27:30;3.60;;;3.30;;
12112;SDS011;6120;52.250;8.478;2023-06-22T07:30:02;3.35;;;3.05;;
12112;SDS011;6120;52.250;8.478;2023-06-22T07:32:29;3.35;;;3.05;;
12112;SDS011;6120;52.250;8.478;2023-06-22T07:34:55;3.25;;;3.00;;
12112;SDS011;6120;52.250;8.478;2023-06-22T07:37:22;3.58;;;3.28;;
12112;SDS011;6120;52.250;8.478;2023-06-22T07:39:49;3.22;;;2.90;;
12112;SDS011;6120;52.250;8.478;2023-06-22T07:42:19;3.55;;;3.25;;
12112;SDS011;6120;52.250;8.478;2023-06-22T07:44:46;3.60;;;3.30;;
12112;SDS011;6120;52.250;8.478;2023-06-22T07:47:13;3.15;;;2.90;;
12112;SDS011;6120;52.250;8.478;2023-06-22T07:49:39;3.50;;;3.20;;
12112;SDS011;6120;52.250;8.478;2023-06-22T07:52:06;3.35;;;3.05;;
12112;SDS011;6120;52.250;8.478;2023-06-22T07:54:33;3.42;;;3.13;;
12112;SDS011;6120;52.250;8.478;2023-06-22T07:56:59;3.65;;;3.35;;
12112;SDS011;6120;52.250;8.478;2023-06-22T07:59:26;2.75;;;2.55;;
12112;SDS011;6120;52.250;8.478;2023-06-22T08:01:54;3.47;;;3.17;;
12112;SDS011;6120;52.250;8.478;2023-06-22T08:04:21;3.33;;;3.03;;
12112;SDS011;6120;52.250;8.478;2023-06-22T08:06:48;3.30;;;3.00;;
12112;SDS011;6120;52.250;8.478;2023-06-22T08:09:15;3.22;;;3.00;;
12112;SDS011;6120;52.250;8.478;2023-06-22T08:11:41;3.70;;;3.33;;
12112;SDS011;6120;52.250;8.478;2023-06-22T08:14:08;3.00;;;2.80;;
12112;SDS011;6120;52.250;8.478;2023-06-22T08:16:35;3.47;;;3.17;;
12112;SDS011;6120;52.250;8.478;2023-06-22T08:19:02;3.55;;;3.00;;
12112;SDS011;6120;52.250;8.478;2023-06-22T08:21:29;3.70;;;3.40;;
12112;SDS011;6120;52.250;8.478;2023-06-22T08:23:55;3.78;;;3.47;;
12112;SDS011;6120;52.250;8.478;2023-06-22T08:26:22;3.47;;;3.17;;
12112;SDS011;6120;52.250;8.478;2023-06-22T08:28:49;3.60;;;3.30;;
12112;SDS011;6120;52.250;8.478;2023-06-22T08:31:16;4.00;;;3.70;;
12112;SDS011;6120;52.250;8.478;2023-06-22T08:33:43;3.80;;;3.50;;
12112;SDS011;6120;52.250;8.478;2023-06-22T08:36:15;3.60;;;3.30;;
12112;SDS011;6120;52.250;8.478;2023-06-22T08:38:42;3.65;;;3.33;;
12112;SDS011;6120;52.250;8.478;2023-06-22T08:41:09;3.75;;;3.45;;
12112;SDS011;6120;52.250;8.478;2023-06-22T08:43:35;3.90;;;3.60;;
12112;SDS011;6120;52.250;8.478;2023-06-22T08:46:02;3.70;;;3.40;;
12112;SDS011;6120;52.250;8.478;2023-06-22T08:48:29;3.95;;;3.65;;
12112;SDS011;6120;52.250;8.478;2023-06-22T08:50:55;4.55;;;4.15;;
12112;SDS011;6120;52.250;8.478;2023-06-22T08:53:22;4.60;;;4.20;;
12112;SDS011;6120;52.250;8.478;2023-06-22T08:55:49;4.80;;;4.40;;
12112;SDS011;6120;52.250;8.478;2023-06-22T08:58:17;4.65;;;4.25;;
12112;SDS011;6120;52.250;8.478;2023-06-22T09:00:44;3.87;;;3.57;;
12112;SDS011;6120;52.250;8.478;2023-06-22T09:03:11;5.18;;;4.78;;
12112;SDS011;6120;52.250;8.478;2023-06-22T09:05:38;5.72;;;5.22;;
12112;SDS011;6120;52.250;8.478;2023-06-22T09:08:05;6.18;;;5.68;;
12112;SDS011;6120;52.250;8.478;2023-06-22T09:10:32;5.07;;;4.68;;
12112;SDS011;6120;52.250;8.478;2023-06-22T09:12:59;3.67;;;3.38;;
12112;SDS011;6120;52.250;8.478;2023-06-22T09:15:25;4.00;;;3.70;;
12112;SDS011;6120;52.250;8.478;2023-06-22T09:17:52;3.90;;;3.53;;
12112;SDS011;6120;52.250;8.478;2023-06-22T09:22:47;3.60;;;3.30;;
12112;SDS011;6120;52.250;8.478;2023-06-22T09:25:14;3.75;;;3.45;;
12112;SDS011;6120;52.250;8.478;2023-06-22T09:27:41;3.38;;;3.08;;
12112;SDS011;6120;52.250;8.478;2023-06-22T09:30:07;3.60;;;3.30;;
12112;SDS011;6120;52.250;8.478;2023-06-22T09:32:34;3.40;;;3.10;;
12112;SDS011;6120;52.250;8.478;2023-06-22T09:35:03;3.50;;;3.20;;
12112;SDS011;6120;52.250;8.478;2023-06-22T09:37:32;3.60;;;3.30;;
12112;SDS011;6120;52.250;8.478;2023-06-22T09:39:58;3.50;;;3.20;;
12112;SDS011;6120;52.250;8.478;2023-06-22T09:42:25;3.50;;;3.20;;
12112;SDS011;6120;52.250;8.478;2023-06-22T09:44:52;3.70;;;3.40;;
12112;SDS011;6120;52.250;8.478;2023-06-22T09:47:18;3.45;;;3.15;;
12112;SDS011;6120;52.250;8.478;2023-06-22T09:49:45;3.35;;;3.05;;
12112;SDS011;6120;52.250;8.478;2023-06-22T09:52:14;4.10;;;3.70;;
12112;SDS011;6120;52.250;8.478;2023-06-22T09:54:41;3.72;;;3.42;;
12112;SDS011;6120;52.250;8.478;2023-06-22T09:57:08;4.53;;;4.13;;
12112;SDS011;6120;52.250;8.478;2023-06-22T09:59:35;4.15;;;3.85;;
12112;SDS011;6120;52.250;8.478;2023-06-22T10:02:01;3.80;;;3.50;;
12112;SDS011;6120;52.250;8.478;2023-06-22T10:04:28;4.25;;;3.85;;
12112;SDS011;6120;52.250;8.478;2023-06-22T10:06:55;3.77;;;3.47;;
12112;SDS011;6120;52.250;8.478;2023-06-22T10:09:22;3.72;;;3.42;;
12112;SDS011;6120;52.250;8.478;2023-06-22T10:11:49;4.45;;;4.05;;
12112;SDS011;6120;52.250;8.478;2023-06-22T10:14:15;4.97;;;4.55;;
12112;SDS011;6120;52.250;8.478;2023-06-22T10:16:42;5.20;;;4.80;;
12112;SDS011;6120;52.250;8.478;2023-06-22T10:19:09;4.35;;;4.05;;
12112;SDS011;6120;52.250;8.478;2023-06-22T10:21:36;4.03;;;3.72;;
12112;SDS011;6120;52.250;8.478;2023-06-22T10:24:03;4.30;;;4.00;;
12112;SDS011;6120;52.250;8.478;2023-06-22T10:26:33;3.90;;;3.60;;
12112;SDS011;6120;52.250;8.478;2023-06-22T10:29:00;3.67;;;3.38;;
12112;SDS011;6120;52.250;8.478;2023-06-22T10:31:41;3.75;;;3.45;;
12112;SDS011;6120;52.250;8.478;2023-06-22T10:34:08;3.85;;;3.50;;
12112;SDS011;6120;52.250;8.478;2023-06-22T10:36:34;3.60;;;3.30;;
12112;SDS011;6120;52.250;8.478;2023-06-22T10:39:04;4.22;;;3.85;;
12112;SDS011;6120;52.250;8.478;2023-06-22T10:41:32;4.20;;;3.80;;
12112;SDS011;6120;52.250;8.478;2023-06-22T10:43:58;3.55;;;3.25;;
12112;SDS011;6120;52.250;8.478;2023-06-22T10:46:25;3.58;;;3.28;;
12112;SDS011;6120;52.250;8.478;2023-06-22T10:48:52;3.75;;;2.70;;
12112;SDS011;6120;52.250;8.478;2023-06-22T10:51:21;3.90;;;3.50;;
12112;SDS011;6120;52.250;8.478;2023-06-22T10:53:48;3.30;;;3.00;;
12112;SDS011;6120;52.250;8.478;2023-06-22T10:56:14;3.30;;;3.10;;
12112;SDS011;6120;52.250;8.478;2023-06-22T10:58:41;3.50;;;3.20;;
12112;SDS011;6120;52.250;8.478;2023-06-22T11:03:45;2.80;;;2.60;;
12112;SDS011;6120;52.250;8.478;2023-06-22T11:06:12;2.70;;;2.50;;
12112;SDS011;6120;52.250;8.478;2023-06-22T11:08:38;2.88;;;2.67;;
12112;SDS011;6120;52.250;8.478;2023-06-22T11:11:14;2.97;;;2.78;;
12112;SDS011;6120;52.250;8.478;2023-06-22T11:13:43;2.90;;;2.65;;
12112;SDS011;6120;52.250;8.478;2023-06-22T11:16:10;2.65;;;2.45;;
12112;SDS011;6120;52.250;8.478;2023-06-22T11:18:37;3.00;;;2.70;;
12112;SDS011;6120;52.250;8.478;2023-06-22T11:21:03;3.20;;;2.85;;
12112;SDS011;6120;52.250;8.478;2023-06-22T11:23:30;3.10;;;2.80;;
12112;SDS011;6120;52.250;8.478;2023-06-22T11:25:56;2.70;;;2.50;;
12112;SDS011;6120;52.250;8.478;2023-06-22T11:28:23;2.90;;;2.70;;
12112;SDS011;6120;52.250;8.478;2023-06-22T11:30:50;2.78;;;2.55;;
12112;SDS011;6120;52.250;8.478;2023-06-22T11:33:16;3.30;;;3.00;;
12112;SDS011;6120;52.250;8.478;2023-06-22T11:35:43;2.60;;;2.40;;
12112;SDS011;6120;52.250;8.478;2023-06-22T11:38:10;2.80;;;2.60;;
12112;SDS011;6120;52.250;8.478;2023-06-22T11:40:36;3.00;;;2.67;;
12112;SDS011;6120;52.250;8.478;2023-06-22T11:43:03;2.67;;;2.47;;
12112;SDS011;6120;52.250;8.478;2023-06-22T11:45:30;2.90;;;2.60;;
12112;SDS011;6120;52.250;8.478;2023-06-22T11:47:57;2.90;;;2.70;;
12112;SDS011;6120;52.250;8.478;2023-06-22T11:50:24;3.20;;;2.90;;
12112;SDS011;6120;52.250;8.478;2023-06-22T11:52:52;3.47;;;3.17;;
12112;SDS011;6120;52.250;8.478;2023-06-22T11:55:19;3.55;;;3.25;;
12112;SDS011;6120;52.250;8.478;2023-06-22T11:57:53;3.20;;;2.90;;
12112;SDS011;6120;52.250;8.478;2023-06-22T12:00:26;3.50;;;3.20;;
12112;SDS011;6120;52.250;8.478;2023-06-22T12:02:56;2.83;;;2.63;;
12112;SDS011;6120;52.250;8.478;2023-06-22T12:05:26;3.47;;;3.17;;
12112;SDS011;6120;52.250;8.478;2023-06-22T12:07:53;2.90;;;2.70;;
12112;SDS011;6120;52.250;8.478;2023-06-22T12:10:24;3.45;;;3.15;;
12112;SDS011;6120;52.250;8.478;2023-06-22T12:12:52;3.50;;;3.20;;
12112;SDS011;6120;52.250;8.478;2023-06-22T12:15:19;3.67;;;3.17;;
12112;SDS011;6120;52.250;8.478;2023-06-22T12:17:45;3.40;;;3.10;;
12112;SDS011;6120;52.250;8.478;2023-06-22T12:20:14;3.45;;;3.15;;
12112;SDS011;6120;52.250;8.478;2023-06-22T12:22:41;2.97;;;2.78;;
12112;SDS011;6120;52.250;8.478;2023-06-22T12:25:08;3.30;;;3.00;;
12112;SDS011;6120;52.250;8.478;2023-06-22T12:27:35;3.58;;;3.28;;
12112;SDS011;6120;52.250;8.478;2023-06-22T12:30:02;3.30;;;3.00;;
12112;SDS011;6120;52.250;8.478;2023-06-22T12:32:29;3.43;;;3.13;;
12112;SDS011;6120;52.250;8.478;2023-06-22T12:34:56;3.47;;;3.17;;
12112;SDS011;6120;52.250;8.478;2023-06-22T12:37:23;3.95;;;3.13;;
12112;SDS011;6120;52.250;8.478;2023-06-22T12:39:50;4.63;;;3.25;;
12112;SDS011;6120;52.250;8.478;2023-06-22T12:42:16;4.10;;;3.58;;
12112;SDS011;6120;52.250;8.478;2023-06-22T12:44:43;3.50;;;3.20;;
12112;SDS011;6120;52.250;8.478;2023-06-22T12:47:10;3.53;;;3.23;;
12112;SDS011;6120;52.250;8.478;2023-06-22T12:49:37;3.22;;;2.92;;
12112;SDS011;6120;52.250;8.478;2023-06-22T12:52:10;3.63;;;3.33;;
12112;SDS011;6120;52.250;8.478;2023-06-22T12:54:37;3.47;;;3.00;;
12112;SDS011;6120;52.250;8.478;2023-06-22T12:57:20;3.40;;;3.10;;
12112;SDS011;6120;52.250;8.478;2023-06-22T12:59:46;2.70;;;2.50;;
12112;SDS011;6120;52.250;8.478;2023-06-22T13:02:13;3.30;;;3.00;;
12112;SDS011;6120;52.250;8.478;2023-06-22T13:04:40;3.95;;;2.83;;
12112;SDS011;6120;52.250;8.478;2023-06-22T13:07:09;3.30;;;3.00;;
12112;SDS011;6120;52.250;8.478;2023-06-22T13:09:49;2.75;;;2.55;;
12112;SDS011;6120;52.250;8.478;2023-06-22T13:12:22;2.65;;;2.45;;
12112;SDS011;6120;52.250;8.478;2023-06-22T13:14:49;2.90;;;2.70;;
12112;SDS011;6120;52.250;8.478;2023-06-22T13:17:17;3.05;;;2.75;;
12112;SDS011;6120;52.250;8.478;2023-06-22T13:19:44;2.80;;;2.50;;
12112;SDS011;6120;52.250;8.478;2023-06-22T13:25:06;3.03;;;2.83;;
12112;SDS011;6120;52.250;8.478;2023-06-22T13:27:34;3.30;;;3.00;;
12112;SDS011;6120;52.250;8.478;2023-06-22T13:30:01;3.08;;;2.85;;
12112;SDS011;6120;52.250;8.478;2023-06-22T13:32:29;2.90;;;2.70;;
12112;SDS011;6120;52.250;8.478;2023-06-22T13:34:55;3.63;;;3.33;;
12112;SDS011;6120;52.250;8.478;2023-06-22T13:37:22;3.17;;;2.97;;
12112;SDS011;6120;52.250;8.478;2023-06-22T13:39:49;3.47;;;3.17;;
12112;SDS011;6120;52.250;8.478;2023-06-22T13:42:16;2.92;;;2.72;;
12112;SDS011;6120;52.250;8.478;2023-06-22T13:44:43;3.70;;;3.40;;
12112;SDS011;6120;52.250;8.478;2023-06-22T13:47:09;3.70;;;3.40;;
12112;SDS011;6120;52.250;8.478;2023-06-22T13:49:37;3.70;;;3.40;;
12112;SDS011;6120;52.250;8.478;2023-06-22T13:52:05;3.83;;;3.53;;
12112;SDS011;6120;52.250;8.478;2023-06-22T13:54:37;3.80;;;3.50;;
12112;SDS011;6120;52.250;8.478;2023-06-22T13:57:05;3.75;;;3.45;;
12112;SDS011;6120;52.250;8.478;2023-06-22T13:59:34;4.07;;;3.67;;
12112;SDS011;6120;52.250;8.478;2023-06-22T14:02:02;4.28;;;3.88;;
12112;SDS011;6120;52.250;8.478;2023-06-22T14:06:57;4.22;;;3.83;;
12112;SDS011;6120;52.250;8.478;2023-06-22T14:09:23;5.00;;;4.60;;
12112;SDS011;6120;52.250;8.478;2023-06-22T14:11:53;4.60;;;4.30;;
12112;SDS011;6120;52.250;8.478;2023-06-22T14:14:20;4.32;;;4.03;;
12112;SDS011;6120;52.250;8.478;2023-06-22T14:16:47;4.60;;;4.20;;
12112;SDS011;6120;52.250;8.478;2023-06-22T14:19:19;4.47;;;4.07;;
12112;SDS011;6120;52.250;8.478;2023-06-22T14:21:45;4.30;;;4.00;;
12112;SDS011;6120;52.250;8.478;2023-06-22T14:24:12;4.47;;;4.18;;
12112;SDS011;6120;52.250;8.478;2023-06-22T14:26:39;4.35;;;4.05;;
12112;SDS011;6120;52.250;8.478;2023-06-22T14:29:05;4.50;;;4.10;;
12112;SDS011;6120;52.250;8.478;2023-06-22T14:31:32;4.75;;;4.35;;
12112;SDS011;6120;52.250;8.478;2023-06-22T14:33:59;4.97;;;4.50;;
12112;SDS011;6120;52.250;8.478;2023-06-22T14:36:26;5.50;;;5.00;;
12112;SDS011;6120;52.250;8.478;2023-06-22T14:38:53;4.72;;;4.32;;
12112;SDS011;6120;52.250;8.478;2023-06-22T14:41:19;4.60;;;4.20;;
12112;SDS011;6120;52.250;8.478;2023-06-22T14:43:47;5.07;;;4.68;;
12112;SDS011;6120;52.250;8.478;2023-06-22T14:46:14;4.77;;;4.37;;
12112;SDS011;6120;52.250;8.478;2023-06-22T14:48:42;4.78;;;4.38;;
12112;SDS011;6120;52.250;8.478;2023-06-22T14:51:09;4.53;;;4.13;;
12112;SDS011;6120;52.250;8.478;2023-06-22T14:53:41;4.35;;;3.95;;
12112;SDS011;6120;52.250;8.478;2023-06-22T14:56:09;4.28;;;3.88;;
12112;SDS011;6120;52.250;8.478;2023-06-22T14:58:36;4.40;;;4.10;;
12112;SDS011;6120;52.250;8.478;2023-06-22T15:01:02;4.82;;;4.43;;
12112;SDS011;6120;52.250;8.478;2023-06-22T15:03:30;4.15;;;3.85;;
12112;SDS011;6120;52.250;8.478;2023-06-22T15:05:58;5.22;;;4.82;;
12112;SDS011;6120;52.250;8.478;2023-06-22T15:08:25;4.30;;;4.00;;
12112;SDS011;6120;52.250;8.478;2023-06-22T15:10:52;4.00;;;3.70;;
12112;SDS011;6120;52.250;8.478;2023-06-22T15:13:19;4.93;;;4.53;;
12112;SDS011;6120;52.250;8.478;2023-06-22T15:15:46;4.20;;;3.90;;
12112;SDS011;6120;52.250;8.478;2023-06-22T15:18:14;4.10;;;3.80;;
12112;SDS011;6120;52.250;8.478;2023-06-22T15:20:41;4.75;;;4.35;;